createdAt,value
2022-12-06T00:01:40.480Z,31.60
2022-12-06T00:04:12.260Z,31.93
2022-12-06T00:06:41.878Z,32.87
2022-12-06T00:09:12.627Z,33.23
2022-12-06T00:11:40.218Z,32.37
2022-12-06T00:14:08.735Z,33.40
2022-12-06T00:16:37.977Z,35.37
2022-12-06T00:19:06.167Z,33.67
2022-12-06T00:21:36.735Z,34.27
2022-12-06T00:24:06.774Z,35.73
2022-12-06T00:26:37.344Z,39.60
2022-12-06T00:29:06.570Z,43.23
2022-12-06T00:31:35.663Z,59.43
2022-12-06T00:34:04.995Z,72.07
2022-12-06T00:36:35.106Z,173.00
2022-12-06T00:39:03.954Z,265.53
2022-12-06T00:41:31.566Z,300.00
2022-12-06T00:43:59.467Z,299.07
2022-12-06T00:46:30.350Z,331.00
2022-12-06T00:48:59.277Z,323.73
2022-12-06T00:51:30.287Z,351.73
2022-12-06T00:53:58.863Z,317.87
2022-12-06T00:56:26.833Z,347.27
2022-12-06T00:58:54.503Z,362.27
2022-12-06T01:01:23.861Z,347.97
2022-12-06T01:03:53.547Z,354.53
2022-12-06T01:06:28.022Z,325.87
2022-12-06T01:08:58.060Z,353.87
2022-12-06T01:11:26.907Z,343.97
2022-12-06T01:13:55.227Z,355.80
2022-12-06T01:16:25.078Z,337.83
2022-12-06T01:18:53.970Z,333.37
2022-12-06T01:21:22.872Z,325.63
2022-12-06T01:23:50.714Z,326.73
2022-12-06T01:26:21.551Z,322.73
2022-12-06T01:28:49.507Z,336.40
2022-12-06T01:31:18.059Z,329.20
2022-12-06T01:33:46.516Z,327.50
2022-12-06T01:36:18.344Z,314.60
2022-12-06T01:38:49.615Z,281.27
2022-12-06T01:41:17.254Z,260.40
2022-12-06T01:43:46.810Z,255.10
2022-12-06T01:46:23.227Z,230.67
2022-12-06T01:48:54.002Z,205.43
2022-12-06T01:51:22.155Z,187.73
2022-12-06T01:53:51.791Z,127.50
2022-12-06T01:56:20.827Z,70.03
2022-12-06T01:58:53.335Z,37.67
2022-12-06T02:01:20.949Z,37.90
2022-12-06T02:03:49.602Z,36.60
2022-12-06T02:06:18.298Z,37.30
2022-12-06T02:08:47.156Z,35.90
2022-12-06T02:11:14.753Z,36.27
2022-12-06T02:13:42.922Z,35.10
2022-12-06T02:16:24.552Z,35.50
2022-12-06T02:18:57.409Z,34.97
2022-12-06T02:21:33.926Z,35.00
2022-12-06T02:24:40.634Z,34.73
2022-12-06T02:27:56.123Z,35.13
2022-12-06T02:30:43.754Z,34.57
2022-12-06T02:33:20.056Z,33.80
2022-12-06T02:35:51.724Z,34.40
2022-12-06T02:38:26.884Z,35.10
2022-12-06T02:40:59.475Z,34.20
2022-12-06T02:43:32.078Z,35.67
2022-12-06T02:46:04.097Z,34.57
2022-12-06T02:48:33.567Z,34.47
2022-12-06T02:51:04.191Z,34.40
2022-12-06T02:53:35.332Z,33.73
2022-12-06T02:56:03.371Z,34.43
2022-12-06T02:58:35.484Z,33.70
2022-12-06T03:01:07.768Z,33.03
2022-12-06T03:04:02.348Z,34.07
2022-12-06T03:07:01.502Z,33.17
2022-12-06T03:09:45.975Z,34.63
2022-12-06T03:12:24.235Z,34.90
2022-12-06T03:15:01.867Z,35.67
2022-12-06T03:17:40.526Z,35.83
2022-12-06T03:20:12.433Z,36.20
2022-12-06T03:22:43.274Z,38.97
2022-12-06T03:25:12.059Z,36.67
2022-12-06T03:27:42.113Z,37.40
2022-12-06T03:33:00.762Z,37.97
2022-12-06T03:35:31.824Z,38.83
2022-12-06T03:38:05.425Z,39.23
2022-12-06T03:40:37.738Z,37.67
2022-12-06T03:43:06.426Z,37.77
2022-12-06T03:45:40.182Z,39.07
2022-12-06T03:48:13.648Z,37.00
2022-12-06T03:50:46.124Z,38.13
2022-12-06T03:53:13.841Z,39.87
2022-12-06T03:55:42.339Z,36.90
2022-12-06T03:58:09.926Z,37.40
2022-12-06T04:00:37.611Z,36.83
2022-12-06T04:03:05.323Z,36.87
2022-12-06T04:05:34.286Z,36.13
2022-12-06T04:08:01.930Z,38.30
2022-12-06T04:10:29.579Z,37.67
2022-12-06T04:13:02.940Z,39.33
2022-12-06T04:15:32.798Z,37.83
2022-12-06T04:18:13.293Z,39.37
2022-12-06T04:21:01.706Z,37.33
2022-12-06T04:23:30.399Z,40.93
2022-12-06T04:25:58.025Z,38.83
2022-12-06T04:28:43.219Z,38.10
2022-12-06T04:31:28.543Z,38.20
2022-12-06T04:34:13.530Z,38.93
2022-12-06T04:37:00.559Z,39.93
2022-12-06T04:39:28.196Z,38.07
2022-12-06T04:42:13.936Z,39.90
2022-12-06T04:44:41.756Z,41.83
2022-12-06T04:47:10.043Z,39.83
2022-12-06T04:49:38.684Z,39.80
2022-12-06T04:52:09.172Z,41.07
2022-12-06T04:54:36.813Z,43.57
2022-12-06T04:57:11.128Z,42.77
2022-12-06T04:59:39.364Z,42.70
2022-12-06T05:02:07.703Z,41.03
2022-12-06T05:04:35.563Z,40.03
2022-12-06T05:07:03.142Z,40.17
2022-12-06T05:09:32.105Z,41.97
2022-12-06T05:11:59.667Z,39.80
2022-12-06T05:14:27.309Z,41.63
2022-12-06T05:16:54.923Z,41.13
2022-12-06T05:19:22.591Z,38.33
2022-12-06T05:21:50.200Z,41.40
2022-12-06T05:24:18.264Z,40.33
2022-12-06T05:26:47.201Z,41.97
2022-12-06T05:29:14.784Z,40.30
2022-12-06T05:31:42.379Z,42.53
2022-12-06T05:34:10.606Z,42.20
2022-12-06T05:36:38.186Z,43.00
2022-12-06T05:39:05.858Z,42.37
2022-12-06T05:41:34.087Z,43.27
2022-12-06T05:44:03.062Z,41.63
2022-12-06T05:46:30.675Z,41.70
2022-12-06T05:48:58.255Z,41.53
2022-12-06T05:51:25.887Z,42.63
2022-12-06T05:53:53.500Z,42.17
2022-12-06T05:56:21.379Z,43.77
2022-12-06T05:58:48.979Z,44.17
2022-12-06T06:01:17.927Z,43.07
2022-12-06T06:03:47.749Z,44.07
2022-12-06T06:06:15.941Z,42.83
2022-12-06T06:08:43.902Z,44.57
2022-12-06T06:11:11.703Z,43.27
2022-12-06T06:13:39.342Z,44.93
2022-12-06T06:16:08.005Z,44.10
2022-12-06T06:18:37.203Z,43.80
2022-12-06T06:21:05.367Z,43.87
2022-12-06T06:23:33.223Z,42.77
2022-12-06T06:26:00.850Z,44.50
2022-12-06T06:28:28.441Z,42.83
2022-12-06T06:30:56.022Z,44.07
2022-12-06T06:33:23.616Z,43.63
2022-12-06T06:35:52.552Z,44.07
2022-12-06T06:38:20.181Z,44.60
2022-12-06T06:40:47.795Z,44.70
2022-12-06T06:43:21.464Z,42.67
2022-12-06T06:45:53.358Z,43.77
2022-12-06T06:48:21.882Z,43.60
2022-12-06T06:50:55.454Z,42.33
2022-12-06T06:53:27.395Z,43.50
2022-12-06T06:55:55.025Z,44.87
2022-12-06T06:58:22.729Z,44.90
2022-12-06T07:00:54.102Z,43.50
2022-12-06T07:03:22.310Z,43.47
2022-12-06T07:05:52.708Z,41.87
2022-12-06T07:08:20.448Z,43.67
2022-12-06T07:10:49.930Z,42.83
2022-12-06T07:13:17.659Z,42.63
2022-12-06T07:15:45.556Z,42.80
2022-12-06T07:18:13.539Z,47.17
2022-12-06T07:20:41.179Z,43.90
2022-12-06T07:23:08.783Z,42.53
2022-12-06T07:25:36.600Z,41.60
2022-12-06T07:28:06.366Z,45.73
2022-12-06T07:30:34.432Z,44.63
2022-12-06T07:33:02.406Z,40.63
2022-12-06T07:35:48.846Z,44.63
2022-12-06T07:38:17.606Z,42.13
2022-12-06T07:43:51.630Z,41.80
2022-12-06T07:46:19.218Z,41.60
2022-12-06T07:48:46.850Z,41.27
2022-12-06T07:51:14.460Z,39.20
2022-12-06T07:53:42.049Z,38.87
2022-12-06T07:56:10.388Z,39.30
2022-12-06T07:58:39.351Z,39.57
2022-12-06T08:01:07.057Z,40.33
2022-12-06T08:03:34.727Z,39.87
2022-12-06T08:06:02.313Z,38.83
2022-12-06T08:08:29.943Z,39.00
2022-12-06T08:10:59.911Z,37.93
2022-12-06T08:13:27.603Z,36.93
2022-12-06T08:15:57.280Z,39.07
2022-12-06T08:18:25.588Z,37.53
2022-12-06T08:20:53.304Z,36.73
2022-12-06T08:23:21.275Z,38.63
2022-12-06T08:25:57.567Z,36.40
2022-12-06T08:28:25.170Z,36.50
2022-12-06T08:30:55.078Z,36.87
2022-12-06T08:33:28.229Z,36.37
2022-12-06T08:35:55.827Z,36.43
2022-12-06T08:38:23.404Z,37.20
2022-12-06T08:40:51.027Z,36.00
2022-12-06T08:43:18.627Z,36.50
2022-12-06T08:45:51.527Z,35.00
2022-12-06T08:48:19.595Z,36.23
2022-12-06T08:50:48.567Z,34.87
2022-12-06T08:53:16.200Z,33.97
2022-12-06T08:55:43.803Z,35.93
2022-12-06T08:58:11.411Z,35.90
2022-12-06T09:00:38.976Z,34.07
2022-12-06T09:03:06.576Z,34.30
2022-12-06T09:05:36.467Z,33.40
2022-12-06T09:08:05.475Z,33.30
2022-12-06T09:10:33.148Z,34.30
2022-12-06T09:13:00.783Z,33.33
2022-12-06T09:15:28.435Z,34.73
2022-12-06T09:17:56.024Z,34.27
2022-12-06T09:20:23.856Z,34.63
2022-12-06T09:22:51.613Z,34.03
2022-12-06T09:25:20.582Z,35.33
2022-12-06T09:27:48.969Z,35.20
2022-12-06T09:30:17.084Z,36.07
2022-12-06T09:32:45.440Z,36.20
2022-12-06T09:35:15.614Z,35.80
2022-12-06T09:37:44.903Z,36.77
2022-12-06T09:40:17.842Z,36.33
2022-12-06T09:43:08.599Z,37.33
2022-12-06T09:45:49.939Z,35.43
2022-12-06T09:48:36.817Z,35.33
2022-12-06T09:51:15.562Z,36.40
2022-12-06T09:53:57.815Z,35.47
2022-12-06T09:56:29.665Z,34.87
2022-12-06T09:59:11.303Z,32.47
2022-12-06T10:01:50.735Z,32.70
2022-12-06T10:04:39.286Z,32.63
2022-12-06T10:07:16.456Z,31.23
2022-12-06T10:09:54.040Z,32.13
2022-12-06T10:12:36.103Z,32.00
2022-12-06T10:15:21.520Z,32.40
2022-12-06T10:18:08.648Z,33.07
2022-12-06T10:20:44.067Z,31.17
2022-12-06T10:23:23.838Z,32.20
2022-12-06T10:26:02.080Z,31.33
2022-12-06T10:28:39.440Z,32.53
2022-12-06T10:31:19.960Z,32.10
2022-12-06T10:33:55.231Z,31.70
2022-12-06T10:36:34.610Z,32.43
2022-12-06T10:39:10.331Z,31.83
2022-12-06T10:41:44.843Z,30.87
2022-12-06T10:44:20.816Z,32.00
2022-12-06T10:47:04.851Z,32.00
2022-12-06T10:49:40.680Z,33.10
2022-12-06T10:52:23.815Z,32.43
2022-12-06T10:54:59.797Z,32.93
2022-12-06T10:57:37.415Z,33.13
2022-12-06T11:00:15.798Z,33.13
2022-12-06T11:02:53.444Z,32.20
2022-12-06T11:05:26.739Z,31.10
2022-12-06T11:08:02.395Z,30.57
2022-12-06T11:10:33.503Z,31.03
2022-12-06T11:13:12.725Z,31.07
2022-12-06T11:15:46.115Z,30.20
2022-12-06T11:18:18.017Z,30.73
2022-12-06T11:20:50.440Z,30.90
2022-12-06T11:23:24.432Z,29.97
2022-12-06T11:26:03.817Z,29.07
2022-12-06T11:28:37.529Z,28.80
2022-12-06T11:31:17.156Z,26.53
2022-12-06T11:33:46.651Z,29.70
2022-12-06T11:36:14.531Z,28.93
2022-12-06T11:38:45.168Z,28.80
2022-12-06T11:41:18.720Z,27.80
2022-12-06T11:43:46.705Z,29.90
2022-12-06T11:46:15.853Z,28.80
2022-12-06T11:48:44.174Z,28.00
2022-12-06T11:51:18.648Z,27.90
2022-12-06T11:53:58.681Z,28.30
2022-12-06T11:56:28.483Z,29.10
2022-12-06T11:59:06.027Z,28.37
2022-12-06T12:01:42.631Z,29.17
2022-12-06T12:04:40.851Z,29.00
2022-12-06T12:07:17.316Z,27.87
2022-12-06T12:09:53.028Z,27.03
2022-12-06T12:12:23.907Z,27.30
2022-12-06T12:14:58.138Z,26.83
2022-12-06T12:17:30.583Z,25.67
2022-12-06T12:20:00.031Z,25.97
2022-12-06T12:22:36.403Z,25.70
2022-12-06T12:25:22.498Z,25.67
2022-12-06T12:27:52.275Z,26.60
2022-12-06T12:30:42.347Z,26.20
2022-12-06T12:33:19.945Z,27.20
2022-12-06T12:35:49.987Z,26.50
2022-12-06T12:38:27.883Z,25.87
2022-12-06T12:40:57.957Z,24.67
2022-12-06T12:43:28.265Z,25.80
2022-12-06T12:46:17.773Z,25.30
2022-12-06T12:48:47.236Z,23.73
2022-12-06T12:51:29.280Z,23.57
2022-12-06T12:54:01.978Z,22.87
2022-12-06T12:56:32.405Z,22.60
2022-12-06T12:59:03.176Z,23.40
2022-12-06T13:01:44.921Z,23.93
2022-12-06T13:04:18.364Z,24.30
2022-12-06T13:06:50.455Z,24.70
2022-12-06T13:09:25.144Z,24.17
2022-12-06T13:11:58.299Z,24.97
2022-12-06T13:14:28.514Z,24.63
2022-12-06T13:17:01.579Z,23.93
2022-12-06T13:19:34.651Z,24.53
2022-12-06T13:22:04.042Z,25.73
2022-12-06T13:24:36.532Z,25.77
2022-12-06T13:27:09.499Z,26.03
2022-12-06T13:29:41.794Z,26.30
2022-12-06T13:32:15.675Z,26.77
2022-12-06T13:34:50.367Z,25.33
2022-12-06T13:37:29.987Z,26.00
2022-12-06T13:39:59.732Z,26.00
2022-12-06T13:42:45.443Z,24.90
2022-12-06T13:45:39.969Z,25.20
2022-12-06T13:48:39.445Z,24.57
2022-12-06T13:51:12.913Z,24.87
2022-12-06T13:54:17.796Z,25.47
2022-12-06T13:56:46.897Z,25.60
2022-12-06T13:59:40.106Z,24.87
2022-12-06T14:02:44.308Z,25.70
2022-12-06T14:08:17.120Z,24.60
2022-12-06T14:10:44.904Z,23.70
2022-12-06T14:13:22.164Z,23.30
2022-12-06T14:15:52.128Z,22.77
2022-12-06T14:18:25.859Z,23.97
2022-12-06T14:20:56.200Z,24.57
2022-12-06T14:23:30.219Z,24.87
2022-12-06T14:26:13.964Z,24.03
2022-12-06T14:28:43.235Z,24.47
2022-12-06T14:31:20.213Z,24.10
2022-12-06T14:33:48.219Z,24.03
2022-12-06T14:36:22.423Z,24.80
2022-12-06T14:38:53.515Z,23.90
2022-12-06T14:41:39.903Z,24.70
2022-12-06T14:44:17.194Z,25.23
2022-12-06T14:46:46.858Z,24.30
2022-12-06T14:49:36.380Z,25.30
2022-12-06T14:52:17.395Z,26.33
2022-12-06T14:54:45.918Z,26.63
2022-12-06T14:57:29.428Z,26.33
2022-12-06T15:00:26.349Z,25.37
2022-12-06T15:03:23.722Z,25.10
2022-12-06T15:06:09.167Z,26.10
2022-12-06T15:08:39.344Z,24.83
2022-12-06T15:11:37.155Z,25.63
2022-12-06T15:14:23.852Z,26.17
2022-12-06T15:17:01.391Z,26.97
2022-12-06T15:19:30.464Z,25.27
2022-12-06T15:21:58.183Z,25.90
2022-12-06T15:24:27.363Z,26.10
2022-12-06T15:26:55.497Z,26.67
2022-12-06T15:29:23.443Z,26.03
2022-12-06T15:31:53.307Z,27.27
2022-12-06T15:34:27.648Z,28.17
2022-12-06T15:37:15.565Z,26.43
2022-12-06T15:39:44.491Z,28.40
2022-12-06T15:42:18.287Z,33.27
2022-12-06T15:44:49.580Z,26.60
2022-12-06T15:47:19.448Z,27.80
2022-12-06T15:49:50.907Z,26.23
2022-12-06T15:52:22.984Z,25.53
2022-12-06T15:54:50.972Z,29.67
2022-12-06T15:57:18.598Z,26.80
2022-12-06T15:59:46.189Z,29.03
2022-12-06T16:02:16.444Z,27.73
2022-12-06T16:04:44.481Z,26.60
2022-12-06T16:07:18.511Z,27.90
2022-12-06T16:09:46.655Z,26.93
2022-12-06T16:12:14.276Z,27.30
2022-12-06T16:14:41.981Z,28.67
2022-12-06T16:17:09.663Z,29.50
2022-12-06T16:19:54.588Z,30.63
2022-12-06T16:22:43.756Z,28.53
2022-12-06T16:25:10.434Z,28.40
2022-12-06T16:27:38.022Z,30.80
2022-12-06T16:30:06.699Z,27.70
2022-12-06T16:32:34.540Z,29.00
2022-12-06T16:35:02.373Z,27.87
2022-12-06T16:37:31.584Z,30.07
2022-12-06T16:39:59.187Z,29.40
2022-12-06T16:42:26.771Z,29.90
2022-12-06T16:44:54.454Z,29.73
2022-12-06T16:49:49.718Z,29.23
2022-12-06T16:52:17.934Z,29.90
2022-12-06T16:54:46.963Z,28.67
2022-12-06T16:57:15.757Z,29.13
2022-12-06T16:59:43.652Z,28.03
2022-12-06T17:02:26.226Z,29.07
2022-12-06T17:04:53.936Z,28.20
2022-12-06T17:07:21.534Z,28.30
2022-12-06T17:09:50.494Z,27.70
2022-12-06T17:12:18.320Z,28.07
2022-12-06T17:14:46.202Z,27.23
2022-12-06T17:17:14.826Z,27.40
2022-12-06T17:19:43.270Z,27.00
2022-12-06T17:22:11.753Z,27.10
2022-12-06T17:24:39.957Z,28.43
2022-12-06T17:27:09.993Z,29.13
2022-12-06T17:29:38.025Z,42.50
2022-12-06T17:32:06.314Z,48.70
2022-12-06T17:34:34.085Z,44.60
2022-12-06T17:37:01.671Z,43.93
2022-12-06T17:39:29.271Z,36.67
2022-12-06T17:42:14.603Z,37.33
2022-12-06T17:44:43.563Z,32.40
2022-12-06T17:47:11.159Z,33.20
2022-12-06T17:49:38.946Z,31.33
2022-12-06T17:52:06.817Z,29.97
2022-12-06T17:54:34.542Z,29.60
2022-12-06T17:57:02.191Z,32.17
2022-12-06T17:59:32.094Z,37.30
2022-12-06T18:02:18.423Z,37.20
2022-12-06T18:04:47.452Z,41.83
2022-12-06T18:07:16.241Z,51.70
2022-12-06T18:09:43.910Z,41.10
2022-12-06T18:12:12.441Z,31.40
2022-12-06T18:14:40.069Z,28.70
2022-12-06T18:17:09.077Z,28.50
2022-12-06T18:19:36.851Z,28.70
2022-12-06T18:22:04.655Z,28.70
2022-12-06T18:24:35.921Z,29.20
2022-12-06T18:27:04.689Z,29.83
2022-12-06T18:29:32.321Z,29.87
2022-12-06T18:32:00.016Z,28.90
2022-12-06T18:34:29.193Z,31.63
2022-12-06T18:36:56.863Z,31.43
2022-12-06T18:39:25.321Z,31.17
2022-12-06T18:41:54.306Z,29.80
2022-12-06T18:44:22.443Z,29.93
2022-12-06T18:46:50.381Z,28.90
2022-12-06T18:49:18.394Z,29.63
2022-12-06T18:51:47.366Z,28.17
2022-12-06T18:54:15.004Z,27.40
2022-12-06T18:56:43.556Z,28.60
2022-12-06T18:59:12.321Z,30.73
2022-12-06T19:01:41.154Z,29.50
2022-12-06T19:04:13.241Z,27.80
2022-12-06T19:06:40.899Z,27.77
2022-12-06T19:09:12.951Z,29.23
2022-12-06T19:11:43.537Z,28.40
2022-12-06T19:14:11.537Z,29.03
2022-12-06T19:16:41.238Z,26.30
2022-12-06T19:19:16.276Z,26.30
2022-12-06T19:21:45.665Z,27.63
2022-12-06T19:24:16.751Z,28.83
2022-12-06T19:26:45.432Z,27.93
2022-12-06T19:29:13.135Z,28.80
2022-12-06T19:31:40.777Z,29.50
2022-12-06T19:34:16.286Z,28.50
2022-12-06T19:36:44.918Z,29.40
2022-12-06T19:39:14.482Z,27.27
2022-12-06T19:42:00.880Z,28.90
2022-12-06T19:44:29.243Z,28.20
2022-12-06T19:46:57.381Z,29.80
2022-12-06T19:49:28.563Z,28.47
2022-12-06T19:51:56.494Z,29.60
2022-12-06T19:54:28.877Z,30.60
2022-12-06T19:56:59.158Z,34.10
2022-12-06T19:59:29.142Z,33.73
2022-12-06T20:01:58.387Z,31.33
2022-12-06T20:04:28.600Z,31.30
2022-12-06T20:06:56.854Z,39.90
2022-12-06T20:09:28.170Z,34.00
2022-12-06T20:12:02.245Z,36.37
2022-12-06T20:14:35.304Z,32.57
2022-12-06T20:17:03.533Z,32.30
2022-12-06T20:19:33.592Z,31.60
2022-12-06T20:22:01.203Z,30.33
2022-12-06T20:24:30.658Z,31.50
2022-12-06T20:26:58.278Z,31.43
2022-12-06T20:29:27.072Z,31.67
2022-12-06T20:31:57.970Z,28.43
2022-12-06T20:34:25.975Z,31.77
2022-12-06T20:36:53.748Z,29.87
2022-12-06T20:39:23.592Z,28.80
2022-12-06T20:41:53.787Z,27.57
2022-12-06T20:44:21.938Z,28.83
2022-12-06T20:46:50.722Z,28.80
2022-12-06T20:49:18.683Z,30.80
2022-12-06T20:51:52.420Z,30.20
2022-12-06T20:54:21.230Z,30.93
2022-12-06T20:56:51.577Z,30.43
2022-12-06T20:59:21.270Z,28.77
2022-12-06T21:01:49.260Z,32.73
2022-12-06T21:04:17.700Z,31.17
2022-12-06T21:06:45.521Z,33.20
2022-12-06T21:09:13.343Z,32.77
2022-12-06T21:11:41.082Z,34.10
2022-12-06T21:14:09.009Z,31.23
2022-12-06T21:16:38.568Z,32.97
2022-12-06T21:19:08.028Z,32.63
2022-12-06T21:21:37.731Z,32.87
2022-12-06T21:24:07.847Z,34.13
2022-12-06T21:26:36.416Z,34.00
2022-12-06T21:29:05.068Z,35.50
2022-12-06T21:31:36.262Z,33.87
2022-12-06T21:36:40.434Z,33.80
2022-12-06T21:39:08.874Z,33.30
2022-12-06T21:41:36.550Z,34.57
2022-12-06T21:44:04.159Z,34.30
2022-12-06T21:46:31.819Z,34.93
2022-12-06T21:49:01.219Z,34.43
2022-12-06T21:51:31.860Z,35.67
2022-12-06T21:54:01.520Z,35.47
2022-12-06T21:56:31.055Z,35.83
2022-12-06T21:59:00.086Z,41.70
2022-12-06T22:01:29.354Z,40.80
2022-12-06T22:03:59.026Z,38.97
2022-12-06T22:06:26.871Z,38.40
2022-12-06T22:08:58.271Z,38.23
2022-12-06T22:11:27.532Z,35.70
2022-12-06T22:13:55.235Z,38.90
2022-12-06T22:16:22.877Z,36.23
2022-12-06T22:18:51.655Z,35.33
2022-12-06T22:21:21.382Z,38.10
2022-12-06T22:23:49.359Z,38.70
2022-12-06T22:26:19.211Z,38.77
2022-12-06T22:28:49.207Z,36.90
2022-12-06T22:31:19.272Z,35.60
2022-12-06T22:33:47.705Z,37.70
2022-12-06T22:36:16.281Z,36.47
2022-12-06T22:38:44.531Z,36.77
2022-12-06T22:41:12.219Z,37.07
2022-12-06T22:43:39.876Z,36.27
2022-12-06T22:46:11.789Z,35.97
2022-12-06T22:48:40.538Z,36.00
2022-12-06T22:51:10.279Z,36.03
2022-12-06T22:53:37.988Z,36.27
2022-12-06T22:56:06.156Z,34.60
2022-12-06T22:58:34.049Z,37.50
2022-12-06T23:01:16.015Z,35.77
2022-12-06T23:03:44.884Z,35.80
2022-12-06T23:06:12.586Z,36.53
2022-12-06T23:08:40.267Z,35.90
2022-12-06T23:11:09.737Z,37.33
2022-12-06T23:13:37.351Z,33.73
2022-12-06T23:16:07.936Z,36.23
2022-12-06T23:18:36.992Z,35.80
2022-12-06T23:21:06.863Z,35.40
2022-12-06T23:23:35.050Z,35.40
2022-12-06T23:26:03.817Z,36.67
2022-12-06T23:28:31.578Z,37.80
2022-12-06T23:31:03.419Z,36.53
2022-12-06T23:33:31.528Z,35.33
2022-12-06T23:36:06.234Z,35.50
2022-12-06T23:38:34.102Z,35.43
2022-12-06T23:41:06.524Z,36.43
2022-12-06T23:43:34.670Z,32.97
2022-12-06T23:46:07.506Z,34.43
2022-12-06T23:48:36.343Z,35.53
2022-12-06T23:51:07.111Z,35.50
2022-12-06T23:53:35.804Z,37.47
2022-12-06T23:56:07.702Z,34.07
2022-12-06T23:58:35.783Z,36.17
